sensor_id;sensor_type;location;lat;lon;timestamp;P1;durP1;ratioP1;P2;durP2;ratioP2
11100;SDS011;5604;50.722;7.078;2023-04-28T00:01:13;7.20;;;3.10;;
11100;SDS011;5604;50.722;7.078;2023-04-28T00:03:41;5.73;;;2.53;;
11100;SDS011;5604;50.722;7.078;2023-04-28T00:06:11;3.47;;;2.57;;
11100;SDS011;5604;50.722;7.078;2023-04-28T00:08:40;5.40;;;2.53;;
11100;SDS011;5604;50.722;7.078;2023-04-28T00:11:08;6.70;;;3.10;;
11100;SDS011;5604;50.722;7.078;2023-04-28T00:13:36;5.73;;;2.67;;
11100;SDS011;5604;50.722;7.078;2023-04-28T00:16:04;3.47;;;2.77;;
11100;SDS011;5604;50.722;7.078;2023-04-28T00:18:33;9.77;;;2.80;;
11100;SDS011;5604;50.722;7.078;2023-04-28T00:21:01;5.73;;;3.40;;
11100;SDS011;5604;50.722;7.078;2023-04-28T00:23:30;4.50;;;2.90;;
11100;SDS011;5604;50.722;7.078;2023-04-28T00:25:58;8.00;;;2.87;;
11100;SDS011;5604;50.722;7.078;2023-04-28T00:28:26;4.33;;;2.87;;
11100;SDS011;5604;50.722;7.078;2023-04-28T00:30:57;6.37;;;3.20;;
11100;SDS011;5604;50.722;7.078;2023-04-28T00:33:25;4.33;;;2.80;;
11100;SDS011;5604;50.722;7.078;2023-04-28T00:35:57;6.17;;;3.40;;
11100;SDS011;5604;50.722;7.078;2023-04-28T00:38:26;5.80;;;3.50;;
11100;SDS011;5604;50.722;7.078;2023-04-28T00:40:55;5.83;;;3.07;;
11100;SDS011;5604;50.722;7.078;2023-04-28T00:43:23;4.80;;;3.13;;
11100;SDS011;5604;50.722;7.078;2023-04-28T00:45:51;6.80;;;4.07;;
11100;SDS011;5604;50.722;7.078;2023-04-28T00:48:20;3.80;;;3.23;;
11100;SDS011;5604;50.722;7.078;2023-04-28T00:50:48;7.40;;;3.00;;
11100;SDS011;5604;50.722;7.078;2023-04-28T00:53:16;6.33;;;3.80;;
11100;SDS011;5604;50.722;7.078;2023-04-28T00:55:45;4.67;;;3.33;;
11100;SDS011;5604;50.722;7.078;2023-04-28T00:58:15;6.60;;;3.60;;
11100;SDS011;5604;50.722;7.078;2023-04-28T01:00:43;5.60;;;3.70;;
11100;SDS011;5604;50.722;7.078;2023-04-28T01:03:11;7.90;;;4.40;;
11100;SDS011;5604;50.722;7.078;2023-04-28T01:05:39;7.43;;;4.00;;
11100;SDS011;5604;50.722;7.078;2023-04-28T01:08:10;4.83;;;4.30;;
11100;SDS011;5604;50.722;7.078;2023-04-28T01:10:42;7.80;;;3.47;;
11100;SDS011;5604;50.722;7.078;2023-04-28T01:13:20;7.40;;;4.13;;
11100;SDS011;5604;50.722;7.078;2023-04-28T01:15:49;6.10;;;3.80;;
11100;SDS011;5604;50.722;7.078;2023-04-28T01:18:17;5.80;;;3.63;;
11100;SDS011;5604;50.722;7.078;2023-04-28T01:20:46;7.67;;;3.90;;
11100;SDS011;5604;50.722;7.078;2023-04-28T01:23:14;4.20;;;3.77;;
11100;SDS011;5604;50.722;7.078;2023-04-28T01:25:44;4.30;;;3.50;;
11100;SDS011;5604;50.722;7.078;2023-04-28T01:28:12;7.30;;;4.00;;
11100;SDS011;5604;50.722;7.078;2023-04-28T01:30:40;5.60;;;4.00;;
11100;SDS011;5604;50.722;7.078;2023-04-28T01:33:09;6.27;;;3.63;;
11100;SDS011;5604;50.722;7.078;2023-04-28T01:35:37;6.07;;;3.97;;
11100;SDS011;5604;50.722;7.078;2023-04-28T01:38:05;6.77;;;3.97;;
11100;SDS011;5604;50.722;7.078;2023-04-28T01:40:33;5.27;;;3.70;;
11100;SDS011;5604;50.722;7.078;2023-04-28T01:43:03;5.97;;;3.47;;
11100;SDS011;5604;50.722;7.078;2023-04-28T01:45:31;5.53;;;3.60;;
11100;SDS011;5604;50.722;7.078;2023-04-28T01:47:59;7.70;;;3.77;;
11100;SDS011;5604;50.722;7.078;2023-04-28T01:50:27;5.60;;;3.70;;
11100;SDS011;5604;50.722;7.078;2023-04-28T01:53:07;7.03;;;4.00;;
11100;SDS011;5604;50.722;7.078;2023-04-28T01:56:11;6.10;;;3.47;;
11100;SDS011;5604;50.722;7.078;2023-04-28T01:58:41;6.87;;;3.97;;
11100;SDS011;5604;50.722;7.078;2023-04-28T02:01:10;5.73;;;4.37;;
11100;SDS011;5604;50.722;7.078;2023-04-28T02:03:39;8.07;;;4.30;;
11100;SDS011;5604;50.722;7.078;2023-04-28T02:06:07;7.73;;;4.20;;
11100;SDS011;5604;50.722;7.078;2023-04-28T02:08:35;5.00;;;4.13;;
11100;SDS011;5604;50.722;7.078;2023-04-28T02:11:04;5.50;;;4.63;;
11100;SDS011;5604;50.722;7.078;2023-04-28T02:13:32;9.43;;;4.83;;
11100;SDS011;5604;50.722;7.078;2023-04-28T02:16:01;6.67;;;4.00;;
11100;SDS011;5604;50.722;7.078;2023-04-28T02:18:29;4.60;;;4.07;;
11100;SDS011;5604;50.722;7.078;2023-04-28T02:21:06;4.50;;;4.10;;
11100;SDS011;5604;50.722;7.078;2023-04-28T02:23:35;9.53;;;4.50;;
11100;SDS011;5604;50.722;7.078;2023-04-28T02:26:04;6.23;;;3.97;;
11100;SDS011;5604;50.722;7.078;2023-04-28T02:28:32;7.83;;;4.53;;
11100;SDS011;5604;50.722;7.078;2023-04-28T02:31:05;7.07;;;4.20;;
11100;SDS011;5604;50.722;7.078;2023-04-28T02:33:34;7.03;;;4.40;;
11100;SDS011;5604;50.722;7.078;2023-04-28T02:36:03;8.30;;;4.60;;
11100;SDS011;5604;50.722;7.078;2023-04-28T02:38:32;5.63;;;4.40;;
11100;SDS011;5604;50.722;7.078;2023-04-28T02:41:00;7.13;;;4.47;;
11100;SDS011;5604;50.722;7.078;2023-04-28T02:43:30;5.87;;;4.00;;
11100;SDS011;5604;50.722;7.078;2023-04-28T02:45:59;6.23;;;4.30;;
11100;SDS011;5604;50.722;7.078;2023-04-28T02:48:28;5.07;;;4.37;;
11100;SDS011;5604;50.722;7.078;2023-04-28T02:50:57;9.63;;;5.17;;
11100;SDS011;5604;50.722;7.078;2023-04-28T02:53:26;5.97;;;4.50;;
11100;SDS011;5604;50.722;7.078;2023-04-28T02:55:54;7.67;;;4.87;;
11100;SDS011;5604;50.722;7.078;2023-04-28T02:58:22;7.10;;;5.23;;
11100;SDS011;5604;50.722;7.078;2023-04-28T03:00:51;8.13;;;5.17;;
11100;SDS011;5604;50.722;7.078;2023-04-28T03:03:19;6.93;;;5.17;;
11100;SDS011;5604;50.722;7.078;2023-04-28T03:05:48;8.30;;;5.23;;
11100;SDS011;5604;50.722;7.078;2023-04-28T03:08:17;7.37;;;5.50;;
11100;SDS011;5604;50.722;7.078;2023-04-28T03:10:46;10.40;;;5.90;;
11100;SDS011;5604;50.722;7.078;2023-04-28T03:13:14;7.30;;;5.73;;
11100;SDS011;5604;50.722;7.078;2023-04-28T03:15:42;10.27;;;5.97;;
11100;SDS011;5604;50.722;7.078;2023-04-28T03:18:10;6.97;;;5.57;;
11100;SDS011;5604;50.722;7.078;2023-04-28T03:20:39;9.57;;;6.70;;
11100;SDS011;5604;50.722;7.078;2023-04-28T03:23:09;7.10;;;6.03;;
11100;SDS011;5604;50.722;7.078;2023-04-28T03:25:37;7.73;;;6.23;;
11100;SDS011;5604;50.722;7.078;2023-04-28T03:28:05;9.90;;;6.40;;
11100;SDS011;5604;50.722;7.078;2023-04-28T03:30:33;10.00;;;7.40;;
11100;SDS011;5604;50.722;7.078;2023-04-28T03:33:01;8.53;;;6.97;;
11100;SDS011;5604;50.722;7.078;2023-04-28T03:35:30;9.57;;;7.30;;
11100;SDS011;5604;50.722;7.078;2023-04-28T03:37:58;8.67;;;7.23;;
11100;SDS011;5604;50.722;7.078;2023-04-28T03:40:27;9.57;;;7.47;;
11100;SDS011;5604;50.722;7.078;2023-04-28T03:43:15;12.37;;;7.53;;
11100;SDS011;5604;50.722;7.078;2023-04-28T03:45:57;8.20;;;7.23;;
11100;SDS011;5604;50.722;7.078;2023-04-28T03:48:26;10.27;;;7.70;;
11100;SDS011;5604;50.722;7.078;2023-04-28T03:50:54;11.80;;;7.10;;
11100;SDS011;5604;50.722;7.078;2023-04-28T03:53:23;12.53;;;7.57;;
11100;SDS011;5604;50.722;7.078;2023-04-28T03:55:53;9.00;;;7.27;;
11100;SDS011;5604;50.722;7.078;2023-04-28T03:58:22;11.57;;;7.70;;
11100;SDS011;5604;50.722;7.078;2023-04-28T04:00:50;12.87;;;9.10;;
11100;SDS011;5604;50.722;7.078;2023-04-28T04:03:18;12.37;;;8.43;;
11100;SDS011;5604;50.722;7.078;2023-04-28T04:05:47;11.20;;;7.93;;
11100;SDS011;5604;50.722;7.078;2023-04-28T04:08:16;12.40;;;8.97;;
11100;SDS011;5604;50.722;7.078;2023-04-28T04:10:44;9.60;;;7.90;;
11100;SDS011;5604;50.722;7.078;2023-04-28T04:13:14;11.53;;;8.13;;
11100;SDS011;5604;50.722;7.078;2023-04-28T04:15:42;9.40;;;7.93;;
11100;SDS011;5604;50.722;7.078;2023-04-28T04:18:11;12.40;;;8.90;;
11100;SDS011;5604;50.722;7.078;2023-04-28T04:21:06;9.57;;;8.20;;
11100;SDS011;5604;50.722;7.078;2023-04-28T04:23:34;11.40;;;8.10;;
11100;SDS011;5604;50.722;7.078;2023-04-28T04:26:02;8.27;;;7.47;;
11100;SDS011;5604;50.722;7.078;2023-04-28T04:28:32;12.83;;;7.50;;
11100;SDS011;5604;50.722;7.078;2023-04-28T04:31:00;9.90;;;6.73;;
11100;SDS011;5604;50.722;7.078;2023-04-28T04:33:29;9.60;;;7.10;;
11100;SDS011;5604;50.722;7.078;2023-04-28T04:35:57;7.67;;;6.87;;
11100;SDS011;5604;50.722;7.078;2023-04-28T04:38:25;7.40;;;6.60;;
11100;SDS011;5604;50.722;7.078;2023-04-28T04:40:55;7.63;;;6.87;;
11100;SDS011;5604;50.722;7.078;2023-04-28T04:43:23;7.90;;;6.67;;
11100;SDS011;5604;50.722;7.078;2023-04-28T04:45:53;9.60;;;6.80;;
11100;SDS011;5604;50.722;7.078;2023-04-28T04:48:21;10.43;;;7.23;;
11100;SDS011;5604;50.722;7.078;2023-04-28T04:50:49;7.80;;;6.40;;
11100;SDS011;5604;50.722;7.078;2023-04-28T04:53:18;11.10;;;7.73;;
11100;SDS011;5604;50.722;7.078;2023-04-28T04:55:46;11.37;;;6.90;;
11100;SDS011;5604;50.722;7.078;2023-04-28T04:58:15;7.47;;;6.70;;
11100;SDS011;5604;50.722;7.078;2023-04-28T05:00:59;10.03;;;7.83;;
11100;SDS011;5604;50.722;7.078;2023-04-28T05:03:28;9.50;;;7.83;;
11100;SDS011;5604;50.722;7.078;2023-04-28T05:05:57;8.43;;;7.63;;
11100;SDS011;5604;50.722;7.078;2023-04-28T05:08:38;7.83;;;7.03;;
11100;SDS011;5604;50.722;7.078;2023-04-28T05:11:07;8.33;;;7.43;;
11100;SDS011;5604;50.722;7.078;2023-04-28T05:13:35;7.77;;;6.83;;
11100;SDS011;5604;50.722;7.078;2023-04-28T05:16:05;8.00;;;6.63;;
11100;SDS011;5604;50.722;7.078;2023-04-28T05:18:56;9.97;;;7.60;;
11100;SDS011;5604;50.722;7.078;2023-04-28T05:21:24;7.83;;;7.13;;
11100;SDS011;5604;50.722;7.078;2023-04-28T05:23:53;9.87;;;7.53;;
11100;SDS011;5604;50.722;7.078;2023-04-28T05:26:21;13.10;;;8.80;;
11100;SDS011;5604;50.722;7.078;2023-04-28T05:28:53;13.80;;;8.53;;
11100;SDS011;5604;50.722;7.078;2023-04-28T05:31:22;9.53;;;8.03;;
11100;SDS011;5604;50.722;7.078;2023-04-28T05:33:52;10.67;;;8.63;;
11100;SDS011;5604;50.722;7.078;2023-04-28T05:36:20;11.37;;;8.27;;
11100;SDS011;5604;50.722;7.078;2023-04-28T05:38:48;12.37;;;8.37;;
11100;SDS011;5604;50.722;7.078;2023-04-28T05:41:17;11.47;;;9.27;;
11100;SDS011;5604;50.722;7.078;2023-04-28T05:43:45;10.53;;;8.43;;
11100;SDS011;5604;50.722;7.078;2023-04-28T05:46:15;11.00;;;9.87;;
11100;SDS011;5604;50.722;7.078;2023-04-28T05:48:58;12.43;;;9.30;;
11100;SDS011;5604;50.722;7.078;2023-04-28T05:51:31;12.13;;;9.60;;
11100;SDS011;5604;50.722;7.078;2023-04-28T05:54:01;13.07;;;9.10;;
11100;SDS011;5604;50.722;7.078;2023-04-28T05:56:31;12.00;;;8.37;;
11100;SDS011;5604;50.722;7.078;2023-04-28T05:59:01;10.83;;;8.40;;
11100;SDS011;5604;50.722;7.078;2023-04-28T06:01:30;11.30;;;8.57;;
11100;SDS011;5604;50.722;7.078;2023-04-28T06:04:00;9.50;;;7.87;;
11100;SDS011;5604;50.722;7.078;2023-04-28T06:06:29;10.07;;;7.73;;
11100;SDS011;5604;50.722;7.078;2023-04-28T06:08:58;9.37;;;8.33;;
11100;SDS011;5604;50.722;7.078;2023-04-28T06:11:26;10.93;;;7.70;;
11100;SDS011;5604;50.722;7.078;2023-04-28T06:13:54;10.03;;;6.87;;
11100;SDS011;5604;50.722;7.078;2023-04-28T06:16:23;10.50;;;7.60;;
11100;SDS011;5604;50.722;7.078;2023-04-28T06:18:52;7.83;;;7.10;;
11100;SDS011;5604;50.722;7.078;2023-04-28T06:21:22;8.50;;;7.47;;
11100;SDS011;5604;50.722;7.078;2023-04-28T06:23:50;8.27;;;7.00;;
11100;SDS011;5604;50.722;7.078;2023-04-28T06:26:19;8.73;;;6.50;;
11100;SDS011;5604;50.722;7.078;2023-04-28T06:28:47;8.13;;;6.97;;
11100;SDS011;5604;50.722;7.078;2023-04-28T06:31:15;7.90;;;6.43;;
11100;SDS011;5604;50.722;7.078;2023-04-28T06:33:44;7.50;;;6.07;;
11100;SDS011;5604;50.722;7.078;2023-04-28T06:36:12;10.90;;;6.60;;
11100;SDS011;5604;50.722;7.078;2023-04-28T06:38:43;9.33;;;6.57;;
11100;SDS011;5604;50.722;7.078;2023-04-28T06:41:12;8.03;;;6.40;;
11100;SDS011;5604;50.722;7.078;2023-04-28T06:43:43;9.07;;;6.77;;
11100;SDS011;5604;50.722;7.078;2023-04-28T06:46:19;8.13;;;5.97;;
11100;SDS011;5604;50.722;7.078;2023-04-28T06:48:49;8.30;;;6.60;;
11100;SDS011;5604;50.722;7.078;2023-04-28T06:51:17;8.60;;;6.00;;
11100;SDS011;5604;50.722;7.078;2023-04-28T06:53:47;6.83;;;6.13;;
11100;SDS011;5604;50.722;7.078;2023-04-28T06:56:16;8.23;;;5.73;;
11100;SDS011;5604;50.722;7.078;2023-04-28T06:58:45;9.00;;;6.60;;
11100;SDS011;5604;50.722;7.078;2023-04-28T07:01:13;8.30;;;5.93;;
11100;SDS011;5604;50.722;7.078;2023-04-28T07:03:41;7.33;;;5.97;;
11100;SDS011;5604;50.722;7.078;2023-04-28T07:06:10;6.07;;;5.47;;
11100;SDS011;5604;50.722;7.078;2023-04-28T07:08:38;9.23;;;5.87;;
11100;SDS011;5604;50.722;7.078;2023-04-28T07:11:08;9.30;;;6.63;;
11100;SDS011;5604;50.722;7.078;2023-04-28T07:13:36;6.60;;;5.93;;
11100;SDS011;5604;50.722;7.078;2023-04-28T07:16:04;7.13;;;6.23;;
11100;SDS011;5604;50.722;7.078;2023-04-28T07:18:32;11.03;;;5.40;;
11100;SDS011;5604;50.722;7.078;2023-04-28T07:21:01;6.73;;;5.57;;
11100;SDS011;5604;50.722;7.078;2023-04-28T07:23:31;5.87;;;5.00;;
11100;SDS011;5604;50.722;7.078;2023-04-28T07:25:59;5.30;;;4.80;;
11100;SDS011;5604;50.722;7.078;2023-04-28T07:28:28;5.13;;;4.63;;
11100;SDS011;5604;50.722;7.078;2023-04-28T07:30:56;7.17;;;4.83;;
11100;SDS011;5604;50.722;7.078;2023-04-28T07:33:25;6.23;;;4.30;;
11100;SDS011;5604;50.722;7.078;2023-04-28T07:35:53;8.60;;;5.07;;
11100;SDS011;5604;50.722;7.078;2023-04-28T07:38:21;6.70;;;4.60;;
11100;SDS011;5604;50.722;7.078;2023-04-28T07:40:49;7.17;;;4.83;;
11100;SDS011;5604;50.722;7.078;2023-04-28T07:43:23;7.10;;;4.50;;
11100;SDS011;5604;50.722;7.078;2023-04-28T07:45:52;4.27;;;3.87;;
11100;SDS011;5604;50.722;7.078;2023-04-28T07:48:20;5.40;;;4.67;;
11100;SDS011;5604;50.722;7.078;2023-04-28T07:50:49;7.27;;;4.43;;
11100;SDS011;5604;50.722;7.078;2023-04-28T07:53:17;7.83;;;4.63;;
11100;SDS011;5604;50.722;7.078;2023-04-28T07:55:45;4.90;;;4.40;;
11100;SDS011;5604;50.722;7.078;2023-04-28T07:58:13;7.23;;;4.30;;
11100;SDS011;5604;50.722;7.078;2023-04-28T08:00:41;7.50;;;5.27;;
11100;SDS011;5604;50.722;7.078;2023-04-28T08:03:11;9.33;;;5.13;;
11100;SDS011;5604;50.722;7.078;2023-04-28T08:05:39;5.90;;;5.07;;
11100;SDS011;5604;50.722;7.078;2023-04-28T08:08:07;5.50;;;5.00;;
11100;SDS011;5604;50.722;7.078;2023-04-28T08:10:35;6.87;;;5.07;;
11100;SDS011;5604;50.722;7.078;2023-04-28T08:13:06;5.67;;;4.80;;
11100;SDS011;5604;50.722;7.078;2023-04-28T08:15:34;7.23;;;4.90;;
11100;SDS011;5604;50.722;7.078;2023-04-28T08:18:02;7.00;;;4.37;;
11100;SDS011;5604;50.722;7.078;2023-04-28T08:20:32;6.53;;;4.37;;
11100;SDS011;5604;50.722;7.078;2023-04-28T08:23:00;6.73;;;5.20;;
11100;SDS011;5604;50.722;7.078;2023-04-28T08:25:28;6.00;;;5.13;;
11100;SDS011;5604;50.722;7.078;2023-04-28T08:27:56;6.23;;;4.67;;
11100;SDS011;5604;50.722;7.078;2023-04-28T08:30:25;5.23;;;4.73;;
11100;SDS011;5604;50.722;7.078;2023-04-28T08:32:53;5.33;;;4.60;;
11100;SDS011;5604;50.722;7.078;2023-04-28T08:35:22;4.97;;;4.40;;
11100;SDS011;5604;50.722;7.078;2023-04-28T08:37:52;6.37;;;4.90;;
11100;SDS011;5604;50.722;7.078;2023-04-28T08:40:20;4.80;;;4.30;;
11100;SDS011;5604;50.722;7.078;2023-04-28T08:42:49;7.83;;;4.40;;
11100;SDS011;5604;50.722;7.078;2023-04-28T08:45:18;6.57;;;5.30;;
11100;SDS011;5604;50.722;7.078;2023-04-28T08:47:47;6.57;;;4.77;;
11100;SDS011;5604;50.722;7.078;2023-04-28T08:50:19;8.70;;;5.60;;
11100;SDS011;5604;50.722;7.078;2023-04-28T08:52:48;7.23;;;4.60;;
11100;SDS011;5604;50.722;7.078;2023-04-28T08:55:19;10.57;;;5.17;;
11100;SDS011;5604;50.722;7.078;2023-04-28T08:57:48;5.00;;;4.50;;
11100;SDS011;5604;50.722;7.078;2023-04-28T09:00:17;5.10;;;4.53;;
11100;SDS011;5604;50.722;7.078;2023-04-28T09:02:45;6.23;;;5.40;;
11100;SDS011;5604;50.722;7.078;2023-04-28T09:05:13;8.30;;;5.00;;
11100;SDS011;5604;50.722;7.078;2023-04-28T09:07:44;6.13;;;5.13;;
11100;SDS011;5604;50.722;7.078;2023-04-28T09:10:17;6.10;;;5.00;;
11100;SDS011;5604;50.722;7.078;2023-04-28T09:12:47;6.00;;;4.93;;
11100;SDS011;5604;50.722;7.078;2023-04-28T09:15:25;7.30;;;5.43;;
11100;SDS011;5604;50.722;7.078;2023-04-28T09:17:55;6.00;;;5.30;;
11100;SDS011;5604;50.722;7.078;2023-04-28T09:20:25;6.00;;;5.17;;
11100;SDS011;5604;50.722;7.078;2023-04-28T09:22:54;6.93;;;5.07;;
11100;SDS011;5604;50.722;7.078;2023-04-28T09:25:24;6.30;;;4.90;;
11100;SDS011;5604;50.722;7.078;2023-04-28T09:27:53;5.83;;;4.90;;
11100;SDS011;5604;50.722;7.078;2023-04-28T09:33:07;6.30;;;3.97;;
11100;SDS011;5604;50.722;7.078;2023-04-28T09:35:40;5.23;;;3.97;;
11100;SDS011;5604;50.722;7.078;2023-04-28T09:38:09;7.80;;;4.40;;
11100;SDS011;5604;50.722;7.078;2023-04-28T09:40:52;4.90;;;4.17;;
11100;SDS011;5604;50.722;7.078;2023-04-28T09:43:21;4.53;;;4.13;;
11100;SDS011;5604;50.722;7.078;2023-04-28T09:45:50;5.23;;;4.73;;
11100;SDS011;5604;50.722;7.078;2023-04-28T09:48:25;4.70;;;4.10;;
11100;SDS011;5604;50.722;7.078;2023-04-28T09:50:54;4.67;;;4.03;;
11100;SDS011;5604;50.722;7.078;2023-04-28T09:53:22;5.60;;;4.20;;
11100;SDS011;5604;50.722;7.078;2023-04-28T09:55:53;5.33;;;4.40;;
11100;SDS011;5604;50.722;7.078;2023-04-28T09:58:22;6.60;;;4.63;;
11100;SDS011;5604;50.722;7.078;2023-04-28T10:00:52;5.33;;;4.27;;
11100;SDS011;5604;50.722;7.078;2023-04-28T10:03:22;5.90;;;4.23;;
11100;SDS011;5604;50.722;7.078;2023-04-28T10:05:55;4.97;;;4.20;;
11100;SDS011;5604;50.722;7.078;2023-04-28T10:08:24;4.87;;;4.03;;
11100;SDS011;5604;50.722;7.078;2023-04-28T10:10:55;6.30;;;4.20;;
11100;SDS011;5604;50.722;7.078;2023-04-28T10:13:24;4.33;;;3.93;;
11100;SDS011;5604;50.722;7.078;2023-04-28T10:15:52;3.80;;;3.50;;
11100;SDS011;5604;50.722;7.078;2023-04-28T10:18:21;4.63;;;3.50;;
11100;SDS011;5604;50.722;7.078;2023-04-28T10:20:52;3.37;;;3.07;;
11100;SDS011;5604;50.722;7.078;2023-04-28T10:23:36;3.87;;;3.30;;
11100;SDS011;5604;50.722;7.078;2023-04-28T10:26:16;5.07;;;3.87;;
11100;SDS011;5604;50.722;7.078;2023-04-28T10:28:45;4.10;;;3.70;;
11100;SDS011;5604;50.722;7.078;2023-04-28T10:31:14;6.07;;;4.20;;
11100;SDS011;5604;50.722;7.078;2023-04-28T10:33:43;5.40;;;4.57;;
11100;SDS011;5604;50.722;7.078;2023-04-28T10:36:46;6.67;;;4.93;;
11100;SDS011;5604;50.722;7.078;2023-04-28T10:39:18;7.07;;;4.47;;
11100;SDS011;5604;50.722;7.078;2023-04-28T10:41:47;7.23;;;3.80;;
11100;SDS011;5604;50.722;7.078;2023-04-28T10:47:08;3.53;;;3.23;;
11100;SDS011;5604;50.722;7.078;2023-04-28T10:52:50;4.77;;;3.20;;
11100;SDS011;5604;50.722;7.078;2023-04-28T10:55:25;3.80;;;3.50;;
11100;SDS011;5604;50.722;7.078;2023-04-28T11:03:53;3.30;;;3.10;;
11100;SDS011;5604;50.722;7.078;2023-04-28T11:06:29;3.90;;;3.10;;
11100;SDS011;5604;50.722;7.078;2023-04-28T11:09:01;3.30;;;2.93;;
11100;SDS011;5604;50.722;7.078;2023-04-28T11:11:30;4.00;;;3.40;;
11100;SDS011;5604;50.722;7.078;2023-04-28T11:17:09;6.27;;;5.67;;
11100;SDS011;5604;50.722;7.078;2023-04-28T11:19:39;7.13;;;6.00;;
11100;SDS011;5604;50.722;7.078;2023-04-28T11:22:12;6.13;;;5.57;;
11100;SDS011;5604;50.722;7.078;2023-04-28T11:24:42;5.90;;;5.30;;
11100;SDS011;5604;50.722;7.078;2023-04-28T11:27:22;5.43;;;4.93;;
11100;SDS011;5604;50.722;7.078;2023-04-28T11:29:51;5.30;;;4.90;;
11100;SDS011;5604;50.722;7.078;2023-04-28T11:32:24;4.10;;;3.70;;
11100;SDS011;5604;50.722;7.078;2023-04-28T11:34:54;4.73;;;3.60;;
11100;SDS011;5604;50.722;7.078;2023-04-28T11:37:22;3.97;;;3.67;;
11100;SDS011;5604;50.722;7.078;2023-04-28T11:39:51;3.63;;;3.33;;
11100;SDS011;5604;50.722;7.078;2023-04-28T11:42:19;4.43;;;3.43;;
11100;SDS011;5604;50.722;7.078;2023-04-28T11:44:48;7.43;;;3.90;;
11100;SDS011;5604;50.722;7.078;2023-04-28T11:47:27;5.87;;;3.80;;
11100;SDS011;5604;50.722;7.078;2023-04-28T11:49:56;3.60;;;3.30;;
11100;SDS011;5604;50.722;7.078;2023-04-28T11:52:24;4.10;;;3.70;;
11100;SDS011;5604;50.722;7.078;2023-04-28T11:54:54;4.80;;;4.10;;
11100;SDS011;5604;50.722;7.078;2023-04-28T11:57:23;4.13;;;3.73;;
11100;SDS011;5604;50.722;7.078;2023-04-28T11:59:52;4.20;;;3.80;;
11100;SDS011;5604;50.722;7.078;2023-04-28T12:02:25;4.50;;;3.67;;
11100;SDS011;5604;50.722;7.078;2023-04-28T12:04:55;3.90;;;3.60;;
11100;SDS011;5604;50.722;7.078;2023-04-28T12:07:24;4.43;;;3.93;;
11100;SDS011;5604;50.722;7.078;2023-04-28T12:12:41;3.93;;;3.53;;
11100;SDS011;5604;50.722;7.078;2023-04-28T12:15:12;5.23;;;4.27;;
11100;SDS011;5604;50.722;7.078;2023-04-28T12:17:40;4.37;;;4.00;;
11100;SDS011;5604;50.722;7.078;2023-04-28T12:20:10;4.57;;;4.10;;
11100;SDS011;5604;50.722;7.078;2023-04-28T12:22:43;4.43;;;4.03;;
11100;SDS011;5604;50.722;7.078;2023-04-28T12:25:14;4.03;;;3.63;;
11100;SDS011;5604;50.722;7.078;2023-04-28T12:27:57;4.43;;;3.60;;
11100;SDS011;5604;50.722;7.078;2023-04-28T12:30:30;4.43;;;4.03;;
11100;SDS011;5604;50.722;7.078;2023-04-28T12:32:59;3.43;;;3.20;;
11100;SDS011;5604;50.722;7.078;2023-04-28T12:35:28;6.90;;;4.07;;
11100;SDS011;5604;50.722;7.078;2023-04-28T12:37:56;4.03;;;3.73;;
11100;SDS011;5604;50.722;7.078;2023-04-28T12:40:26;3.57;;;3.27;;
11100;SDS011;5604;50.722;7.078;2023-04-28T12:42:54;4.10;;;3.80;;
11100;SDS011;5604;50.722;7.078;2023-04-28T12:45:22;3.60;;;3.30;;
11100;SDS011;5604;50.722;7.078;2023-04-28T12:47:50;3.80;;;3.50;;
11100;SDS011;5604;50.722;7.078;2023-04-28T12:50:19;2.90;;;2.60;;
11100;SDS011;5604;50.722;7.078;2023-04-28T12:52:47;3.97;;;3.00;;
11100;SDS011;5604;50.722;7.078;2023-04-28T12:55:15;3.00;;;2.70;;
11100;SDS011;5604;50.722;7.078;2023-04-28T12:57:44;2.60;;;2.40;;
11100;SDS011;5604;50.722;7.078;2023-04-28T13:00:13;2.47;;;2.27;;
11100;SDS011;5604;50.722;7.078;2023-04-28T13:02:43;2.77;;;2.57;;
11100;SDS011;5604;50.722;7.078;2023-04-28T13:05:12;3.43;;;2.40;;
11100;SDS011;5604;50.722;7.078;2023-04-28T13:07:41;3.10;;;2.10;;
11100;SDS011;5604;50.722;7.078;2023-04-28T13:10:09;3.07;;;2.40;;
11100;SDS011;5604;50.722;7.078;2023-04-28T13:12:39;3.07;;;1.73;;
11100;SDS011;5604;50.722;7.078;2023-04-28T13:15:09;1.90;;;1.80;;
11100;SDS011;5604;50.722;7.078;2023-04-28T13:17:38;1.80;;;1.70;;
11100;SDS011;5604;50.722;7.078;2023-04-28T13:20:07;2.37;;;1.97;;
11100;SDS011;5604;50.722;7.078;2023-04-28T13:22:36;2.27;;;1.83;;
11100;SDS011;5604;50.722;7.078;2023-04-28T13:25:04;3.57;;;2.10;;
11100;SDS011;5604;50.722;7.078;2023-04-28T13:27:33;1.63;;;1.53;;
11100;SDS011;5604;50.722;7.078;2023-04-28T13:30:03;2.80;;;2.23;;
11100;SDS011;5604;50.722;7.078;2023-04-28T13:32:33;6.03;;;3.60;;
11100;SDS011;5604;50.722;7.078;2023-04-28T13:35:02;3.90;;;3.43;;
11100;SDS011;5604;50.722;7.078;2023-04-28T13:37:30;4.30;;;4.00;;
11100;SDS011;5604;50.722;7.078;2023-04-28T13:39:58;4.53;;;4.13;;
11100;SDS011;5604;50.722;7.078;2023-04-28T13:42:29;5.20;;;4.27;;
11100;SDS011;5604;50.722;7.078;2023-04-28T13:44:57;5.57;;;5.07;;
11100;SDS011;5604;50.722;7.078;2023-04-28T13:47:26;5.57;;;5.07;;
11100;SDS011;5604;50.722;7.078;2023-04-28T13:49:55;4.53;;;4.13;;
11100;SDS011;5604;50.722;7.078;2023-04-28T13:52:25;4.57;;;4.20;;
11100;SDS011;5604;50.722;7.078;2023-04-28T13:54:53;4.70;;;4.30;;
11100;SDS011;5604;50.722;7.078;2023-04-28T13:57:21;4.00;;;3.60;;
11100;SDS011;5604;50.722;7.078;2023-04-28T13:59:49;4.30;;;3.90;;
11100;SDS011;5604;50.722;7.078;2023-04-28T14:02:18;3.83;;;3.53;;
11100;SDS011;5604;50.722;7.078;2023-04-28T14:04:46;3.73;;;3.53;;
11100;SDS011;5604;50.722;7.078;2023-04-28T14:07:18;4.90;;;4.50;;
11100;SDS011;5604;50.722;7.078;2023-04-28T14:09:46;6.00;;;4.17;;
11100;SDS011;5604;50.722;7.078;2023-04-28T14:12:14;4.33;;;3.97;;
11100;SDS011;5604;50.722;7.078;2023-04-28T14:14:42;4.63;;;4.23;;
11100;SDS011;5604;50.722;7.078;2023-04-28T14:17:11;4.43;;;4.03;;
11100;SDS011;5604;50.722;7.078;2023-04-28T14:19:39;4.50;;;4.10;;
11100;SDS011;5604;50.722;7.078;2023-04-28T14:22:07;4.33;;;3.93;;
11100;SDS011;5604;50.722;7.078;2023-04-28T14:24:36;4.60;;;4.13;;
11100;SDS011;5604;50.722;7.078;2023-04-28T14:27:05;4.00;;;3.70;;
11100;SDS011;5604;50.722;7.078;2023-04-28T14:29:33;4.37;;;3.93;;
11100;SDS011;5604;50.722;7.078;2023-04-28T14:32:01;4.27;;;3.97;;
11100;SDS011;5604;50.722;7.078;2023-04-28T14:34:30;4.20;;;3.90;;
11100;SDS011;5604;50.722;7.078;2023-04-28T14:36:58;4.07;;;3.67;;
11100;SDS011;5604;50.722;7.078;2023-04-28T14:39:26;3.87;;;3.57;;
11100;SDS011;5604;50.722;7.078;2023-04-28T14:41:56;4.07;;;3.67;;
11100;SDS011;5604;50.722;7.078;2023-04-28T14:44:24;3.57;;;3.27;;
11100;SDS011;5604;50.722;7.078;2023-04-28T14:46:52;3.40;;;3.10;;
11100;SDS011;5604;50.722;7.078;2023-04-28T14:49:21;3.57;;;3.23;;
11100;SDS011;5604;50.722;7.078;2023-04-28T14:51:49;5.13;;;4.63;;
11100;SDS011;5604;50.722;7.078;2023-04-28T14:54:18;3.40;;;3.20;;
11100;SDS011;5604;50.722;7.078;2023-04-28T14:56:47;3.00;;;2.70;;
11100;SDS011;5604;50.722;7.078;2023-04-28T14:59:17;2.97;;;2.70;;
11100;SDS011;5604;50.722;7.078;2023-04-28T15:01:46;2.80;;;2.60;;
11100;SDS011;5604;50.722;7.078;2023-04-28T15:04:16;2.13;;;1.87;;
11100;SDS011;5604;50.722;7.078;2023-04-28T15:06:44;2.00;;;1.60;;
11100;SDS011;5604;50.722;7.078;2023-04-28T15:09:13;1.60;;;1.50;;
11100;SDS011;5604;50.722;7.078;2023-04-28T15:11:41;1.70;;;1.60;;
11100;SDS011;5604;50.722;7.078;2023-04-28T15:14:09;2.00;;;1.47;;
11100;SDS011;5604;50.722;7.078;2023-04-28T15:16:39;4.33;;;1.50;;
11100;SDS011;5604;50.722;7.078;2023-04-28T15:19:08;1.50;;;1.40;;
11100;SDS011;5604;50.722;7.078;2023-04-28T15:21:36;1.37;;;1.27;;
11100;SDS011;5604;50.722;7.078;2023-04-28T15:24:04;3.17;;;1.70;;
11100;SDS011;5604;50.722;7.078;2023-04-28T15:26:32;1.83;;;1.33;;
11100;SDS011;5604;50.722;7.078;2023-04-28T15:29:00;2.40;;;1.50;;
11100;SDS011;5604;50.722;7.078;2023-04-28T15:31:28;1.53;;;1.43;;
11100;SDS011;5604;50.722;7.078;2023-04-28T15:33:58;1.03;;;1.03;;
11100;SDS011;5604;50.722;7.078;2023-04-28T15:36:26;2.67;;;1.10;;